Time;durP1;ratioP1;P1;durP2;ratioP2;P2;SDS_P1;SDS_P2;PMS_P1;PMS_P2;Temp;Humidity;BMP_temperature;BMP_pressure;BME280_temperature;BME280_humidity;BME280_pressure;Samples;Min_cycle;Max_cycle;Signal;HPM_P1;HPM_P2
2022/05/15 00:00:48;;;;;;;;;;;13.50;99.90;;;;;;5043395;28;19925;-68
2022/05/15 00:03:16;;;;;;;;;;;13.40;99.90;;;;;;5042968;28;20204;-67
2022/05/15 00:05:43;;;;;;;;;;;13.40;99.90;;;;;;5042391;28;19921;-68
2022/05/15 00:08:11;;;;;;;;;;;13.30;99.90;;;;;;5040517;28;19928;-68
2022/05/15 00:10:38;;;;;;;;;;;13.40;99.90;;;;;;5030186;28;19921;-68
2022/05/15 00:13:05;;;;;;;;;;;13.40;99.90;;;;;;5042962;28;19951;-68
2022/05/15 00:15:32;;;;;;;;;;;13.30;99.90;;;;;;5042525;28;19921;-68
2022/05/15 00:18:00;;;;;;;;;;;13.30;99.90;;;;;;5042970;28;19968;-67
2022/05/15 00:20:27;;;;;;;;;;;13.30;99.90;;;;;;5042851;28;19921;-68
2022/05/15 00:22:54;;;;;;;;;;;13.30;99.90;;;;;;5042293;28;19921;-68
2022/05/15 00:25:20;;;;;;;;;;;13.20;99.90;;;;;;5041897;28;19928;-68
2022/05/15 00:27:48;;;;;;;;;;;13.10;99.90;;;;;;5042503;28;19922;-68
2022/05/15 00:30:15;;;;;;;;;;;13.00;99.90;;;;;;5042587;28;19924;-69
2022/05/15 00:32:42;;;;;;;;;;;12.90;99.90;;;;;;5042941;28;19936;-67
2022/05/15 00:35:11;;;;;;;;;;;12.70;99.90;;;;;;5041830;28;20117;-68
2022/05/15 00:37:37;;;;;;;;;;;12.50;99.90;;;;;;5042383;28;20226;-68
2022/05/15 00:40:04;;;;;;;;;;;12.40;99.90;;;;;;5042827;28;19921;-68
2022/05/15 00:42:31;;;;;;;;;;;12.40;99.90;;;;;;5042878;28;19921;-68
2022/05/15 00:44:57;;;;;;;;;;;12.40;99.90;;;;;;5042530;28;19921;-68
2022/05/15 00:47:24;;;;;;;;;;;12.40;99.90;;;;;;5041932;28;19927;-68
2022/05/15 00:49:51;;;;;;;;;;;12.40;99.90;;;;;;5031592;28;19921;-68
2022/05/15 00:52:22;;;;;;;;;;;12.30;99.90;;;;;;5023253;28;19921;-68
2022/05/15 00:54:51;;;;;;;;;;;12.20;99.90;;;;;;5022771;28;19921;-68
2022/05/15 00:57:20;;;;;;;;;;;12.10;99.90;;;;;;5025911;28;19958;-68
2022/05/15 00:59:49;;;;;;;;;;;12.10;99.90;;;;;;5026536;28;19943;-68
2022/05/15 01:02:16;;;;;;;;;;;12.10;99.90;;;;;;5026305;28;19928;-68
2022/05/15 01:04:43;;;;;;;;;;;12.10;99.90;;;;;;5026261;28;19928;-68
2022/05/15 01:07:10;;;;;;;;;;;11.90;99.90;;;;;;5021262;28;19947;-68
2022/05/15 01:09:38;;;;;;;;;;;11.90;99.90;;;;;;5026279;28;19925;-67
2022/05/15 01:12:05;;;;;;;;;;;11.80;99.90;;;;;;5043085;28;19944;-68
2022/05/15 01:14:32;;;;;;;;;;;11.80;99.90;;;;;;5045735;28;19921;-68
2022/05/15 01:16:59;;;;;;;;;;;11.80;99.90;;;;;;5044943;28;19921;-68
2022/05/15 01:19:30;;;;;;;;;;;11.80;99.90;;;;;;5045444;28;19921;-68
2022/05/15 01:21:58;;;;;;;;;;;11.80;99.90;;;;;;5045733;28;19921;-67
2022/05/15 01:24:25;;;;;;;;;;;11.80;99.90;;;;;;5045931;28;20115;-68
2022/05/15 01:26:51;;;;;;;;;;;11.80;99.90;;;;;;5045023;28;19988;-68
2022/05/15 01:29:19;;;;;;;;;;;11.80;99.90;;;;;;5045603;28;19921;-68
2022/05/15 01:31:48;;;;;;;;;;;11.80;99.90;;;;;;5045716;28;19936;-67
2022/05/15 01:34:14;;;;;;;;;;;11.70;99.90;;;;;;5027418;28;19928;-68
2022/05/15 01:36:41;;;;;;;;;;;11.70;99.90;;;;;;5025056;28;19922;-68
2022/05/15 01:39:09;;;;;;;;;;;11.70;99.90;;;;;;5025718;28;19985;-67
2022/05/15 01:41:35;;;;;;;;;;;11.70;99.90;;;;;;5025532;28;19922;-68
2022/05/15 01:44:02;;;;;;;;;;;11.60;99.90;;;;;;5025254;28;19980;-67
2022/05/15 01:46:29;;;;;;;;;;;11.60;99.90;;;;;;5024870;28;19936;-68
2022/05/15 01:48:56;;;;;;;;;;;11.50;99.90;;;;;;5025158;28;19927;-68
2022/05/15 01:51:23;;;;;;;;;;;11.60;99.90;;;;;;5025301;28;20001;-67
2022/05/15 01:53:50;;;;;;;;;;;11.50;99.90;;;;;;5025360;28;19933;-67
2022/05/15 01:56:18;;;;;;;;;;;11.50;99.90;;;;;;5024995;28;20104;-67
2022/05/15 01:58:44;;;;;;;;;;;11.50;99.90;;;;;;5025407;28;19921;-67
2022/05/15 02:01:11;;;;;;;;;;;11.50;99.90;;;;;;5026512;28;19925;-68
2022/05/15 02:03:38;;;;;;;;;;;11.50;99.90;;;;;;5024921;28;19921;-68
2022/05/15 02:06:05;;;;;;;;;;;11.50;99.90;;;;;;5022156;28;19985;-68
2022/05/15 02:08:32;;;;;;;;;;;11.50;99.90;;;;;;5022506;28;19921;-68
2022/05/15 02:10:59;;;;;;;;;;;11.40;99.90;;;;;;5024937;28;19921;-68
2022/05/15 02:13:27;;;;;;;;;;;11.40;99.90;;;;;;5024690;28;19930;-68
2022/05/15 02:15:54;;;;;;;;;;;11.40;99.90;;;;;;5032880;28;19927;-68
2022/05/15 02:18:21;;;;;;;;;;;11.40;99.90;;;;;;5044713;28;19928;-67
2022/05/15 02:20:47;;;;;;;;;;;11.40;99.90;;;;;;5044394;28;19921;-67
2022/05/15 02:23:14;;;;;;;;;;;11.40;99.90;;;;;;5044379;28;20136;-67
2022/05/15 02:25:41;;;;;;;;;;;11.40;99.90;;;;;;5043627;28;19921;-68
2022/05/15 02:28:07;;;;;;;;;;;11.30;99.90;;;;;;5044266;28;19921;-68
2022/05/15 02:30:35;;;;;;;;;;;11.20;99.90;;;;;;5036133;28;19927;-69
2022/05/15 02:33:02;;;;;;;;;;;11.20;99.90;;;;;;5023793;28;20093;-67
2022/05/15 02:35:28;;;;;;;;;;;11.20;99.90;;;;;;5023902;28;19952;-68
2022/05/15 02:37:55;;;;;;;;;;;11.10;99.90;;;;;;5024696;28;19935;-68
2022/05/15 02:40:23;;;;;;;;;;;11.10;99.90;;;;;;5024841;28;19921;-68
2022/05/15 02:42:51;;;;;;;;;;;11.00;99.90;;;;;;5022897;28;19928;-67
2022/05/15 02:45:17;;;;;;;;;;;10.90;99.90;;;;;;5025594;28;20153;-67
2022/05/15 02:47:45;;;;;;;;;;;10.80;99.90;;;;;;5041647;28;19936;-67
2022/05/15 02:52:56;;;;;;;;;;;10.70;99.90;;;;;;5043853;28;19932;-67
2022/05/15 02:55:23;;;;;;;;;;;10.60;99.90;;;;;;5043114;28;19929;-68
2022/05/15 02:57:50;;;;;;;;;;;10.60;99.90;;;;;;5041018;28;19924;-68
2022/05/15 03:00:18;;;;;;;;;;;10.60;99.90;;;;;;5043285;28;19921;-68
2022/05/15 03:02:46;;;;;;;;;;;10.60;99.90;;;;;;5043647;28;19927;-69
2022/05/15 03:05:13;;;;;;;;;;;10.60;99.90;;;;;;5043115;28;19928;-69
2022/05/15 03:07:42;;;;;;;;;;;10.60;99.90;;;;;;5040709;28;19928;-68
2022/05/15 03:10:10;;;;;;;;;;;10.60;99.90;;;;;;5043077;28;19999;-68
2022/05/15 03:12:36;;;;;;;;;;;10.60;99.90;;;;;;5043927;28;20004;-67
2022/05/15 03:15:05;;;;;;;;;;;10.60;99.90;;;;;;5043539;28;19921;-68
2022/05/15 03:17:32;;;;;;;;;;;10.50;99.90;;;;;;5042835;28;20208;-68
2022/05/15 03:20:00;;;;;;;;;;;10.50;99.90;;;;;;5043376;28;19933;-67
2022/05/15 03:22:26;;;;;;;;;;;10.50;99.90;;;;;;5027956;28;19925;-67
2022/05/15 03:24:53;;;;;;;;;;;10.50;99.90;;;;;;5021374;28;19921;-67
2022/05/15 03:27:19;;;;;;;;;;;10.50;99.90;;;;;;5023141;28;20222;-68
2022/05/15 03:29:46;;;;;;;;;;;10.50;99.90;;;;;;5023532;28;19921;-67
2022/05/15 03:32:13;;;;;;;;;;;10.40;99.90;;;;;;5023881;28;19944;-68
2022/05/15 03:34:40;;;;;;;;;;;10.40;99.90;;;;;;5021447;28;19925;-67
2022/05/15 03:37:08;;;;;;;;;;;10.40;99.90;;;;;;5022932;28;19921;-68
2022/05/15 03:39:35;;;;;;;;;;;10.40;99.90;;;;;;5023420;28;19925;-67
2022/05/15 03:42:01;;;;;;;;;;;10.40;99.90;;;;;;5023663;28;20132;-68
2022/05/15 03:44:28;;;;;;;;;;;10.30;99.90;;;;;;5023308;28;19921;-67
2022/05/15 03:46:55;;;;;;;;;;;10.30;99.90;;;;;;5022579;28;19921;-67
2022/05/15 03:49:21;;;;;;;;;;;10.30;99.90;;;;;;5023517;28;19921;-67
2022/05/15 03:51:48;;;;;;;;;;;10.20;99.90;;;;;;5023370;28;19929;-68
2022/05/15 03:54:16;;;;;;;;;;;10.30;99.90;;;;;;5023175;28;20227;-68
2022/05/15 03:56:51;;;;;;;;;;;10.20;99.90;;;;;;5022677;28;19921;-68
2022/05/15 03:59:19;;;;;;;;;;;10.20;99.90;;;;;;5023706;28;19922;-68
2022/05/15 04:01:45;;;;;;;;;;;10.20;99.90;;;;;;5022983;28;20289;-67
2022/05/15 04:04:12;;;;;;;;;;;10.10;99.90;;;;;;5030257;28;19927;-67
2022/05/15 04:06:38;;;;;;;;;;;10.10;99.90;;;;;;5042470;28;19960;-68
2022/05/15 04:09:06;;;;;;;;;;;10.10;99.90;;;;;;5041043;28;19921;-68
2022/05/15 04:11:34;;;;;;;;;;;10.10;99.90;;;;;;5030336;28;19979;-67
2022/05/15 04:14:00;;;;;;;;;;;10.10;99.90;;;;;;5023066;28;19957;-68
2022/05/15 04:16:27;;;;;;;;;;;10.10;99.90;;;;;;5022238;28;19929;-68
2022/05/15 04:18:55;;;;;;;;;;;10.10;99.90;;;;;;5029628;28;20160;-68
2022/05/15 04:21:21;;;;;;;;;;;10.10;99.90;;;;;;5042876;28;19967;-67
2022/05/15 04:23:48;;;;;;;;;;;10.00;99.90;;;;;;5042619;28;19921;-68
2022/05/15 04:26:14;;;;;;;;;;;10.10;99.90;;;;;;5042058;28;20230;-67
2022/05/15 04:28:42;;;;;;;;;;;10.10;99.90;;;;;;5042648;28;19988;-67
2022/05/15 04:31:09;;;;;;;;;;;10.20;99.90;;;;;;5044918;28;20267;-68
2022/05/15 04:33:36;;;;;;;;;;;10.20;99.90;;;;;;5034202;28;19928;-68
2022/05/15 04:36:03;;;;;;;;;;;10.20;99.90;;;;;;5025913;28;20208;-68
2022/05/15 04:38:30;;;;;;;;;;;10.30;99.90;;;;;;5026630;28;19922;-68
2022/05/15 04:40:56;;;;;;;;;;;10.40;99.90;;;;;;5026478;28;20000;-68
2022/05/15 04:43:23;;;;;;;;;;;10.50;99.90;;;;;;5026331;28;19921;-68
2022/05/15 04:45:51;;;;;;;;;;;10.50;99.90;;;;;;5026051;28;20209;-68
2022/05/15 04:48:18;;;;;;;;;;;10.60;99.90;;;;;;5026704;28;19922;-68
2022/05/15 04:50:44;;;;;;;;;;;10.70;99.90;;;;;;5026984;28;19928;-68
2022/05/15 04:53:11;;;;;;;;;;;10.80;99.90;;;;;;5026337;28;19921;-68
2022/05/15 04:55:37;;;;;;;;;;;10.80;99.90;;;;;;5025905;28;20005;-67
2022/05/15 04:58:04;;;;;;;;;;;10.90;99.90;;;;;;5026238;28;20247;-67
2022/05/15 05:00:31;;;;;;;;;;;10.90;99.90;;;;;;5026590;28;19922;-67
2022/05/15 05:02:59;;;;;;;;;;;11.00;99.90;;;;;;5026064;28;20235;-67
2022/05/15 05:05:25;;;;;;;;;;;11.10;99.90;;;;;;5025420;28;19921;-68
2022/05/15 05:07:52;;;;;;;;;;;11.10;99.90;;;;;;5023694;28;20117;-68
2022/05/15 05:10:19;;;;;;;;;;;11.20;99.90;;;;;;5039330;28;19928;-68
2022/05/15 05:12:45;;;;;;;;;;;11.30;99.90;;;;;;5043718;28;20224;-67
2022/05/15 05:15:13;;;;;;;;;;;11.40;99.90;;;;;;5045501;28;19921;-68
2022/05/15 05:17:39;;;;;;;;;;;11.50;99.90;;;;;;5045752;28;20177;-67
2022/05/15 05:20:08;;;;;;;;;;;11.60;99.90;;;;;;5045637;28;19925;-68
2022/05/15 05:22:35;;;;;;;;;;;11.70;99.90;;;;;;5042769;28;19928;-68
2022/05/15 05:25:02;;;;;;;;;;;11.80;99.90;;;;;;5040858;28;19921;-67
2022/05/15 05:27:28;;;;;;;;;;;11.90;99.90;;;;;;5045142;28;19921;-67
2022/05/15 05:29:55;;;;;;;;;;;11.90;99.90;;;;;;5045644;28;19921;-68
2022/05/15 05:32:22;;;;;;;;;;;12.10;99.90;;;;;;5045757;28;19921;-67
2022/05/15 05:34:48;;;;;;;;;;;12.20;99.90;;;;;;5045384;28;20171;-67
2022/05/15 05:37:17;;;;;;;;;;;12.30;99.90;;;;;;5044871;28;19928;-68
2022/05/15 05:39:43;;;;;;;;;;;12.30;99.90;;;;;;5026599;28;20279;-67
2022/05/15 05:42:10;;;;;;;;;;;12.40;99.90;;;;;;5025312;28;20123;-67
2022/05/15 05:44:37;;;;;;;;;;;12.50;99.90;;;;;;5080917;23;19920;-68
2022/05/15 05:47:03;;;;;;;;;;;12.60;99.90;;;;;;5084595;28;19920;-68
2022/05/15 05:49:30;;;;;;;;;;;12.70;99.90;;;;;;5108745;28;19920;-67
2022/05/15 05:51:57;;;;;;;;;;;12.80;99.90;;;;;;5125604;28;19924;-67
2022/05/15 05:54:25;;;;;;;;;;;12.90;99.90;;;;;;5105042;28;19928;-68
2022/05/15 05:56:51;;;;;;;;;;;13.00;99.90;;;;;;5104902;28;19930;-68
2022/05/15 05:59:18;;;;;;;;;;;13.10;99.90;;;;;;5105160;28;19920;-67
2022/05/15 06:01:44;;;;;;;;;;;13.20;99.90;;;;;;5105377;28;19920;-68
2022/05/15 06:06:55;;;;;;;;;;;13.50;99.90;;;;;;5103186;28;19968;-67
2022/05/15 06:09:22;;;;;;;;;;;13.50;99.90;;;;;;5104838;28;19927;-67
2022/05/15 06:11:50;;;;;;;;;;;13.60;99.90;;;;;;5105175;28;19920;-67
2022/05/15 06:14:16;;;;;;;;;;;13.60;99.90;;;;;;5104581;28;19928;-67
2022/05/15 06:16:43;;;;;;;;;;;13.70;99.90;;;;;;5104234;28;19987;-67
2022/05/15 06:19:10;;;;;;;;;;;13.80;99.90;;;;;;5104787;28;19920;-67
2022/05/15 06:21:37;;;;;;;;;;;13.90;99.90;;;;;;5104469;28;20130;-67
2022/05/15 06:24:03;;;;;;;;;;;14.10;99.90;;;;;;5104631;28;19920;-68
2022/05/15 06:26:30;;;;;;;;;;;14.20;99.90;;;;;;5104477;28;19919;-67
2022/05/15 06:28:58;;;;;;;;;;;14.30;99.90;;;;;;5104753;28;19955;-68
2022/05/15 06:31:24;;;;;;;;;;;14.50;99.90;;;;;;5104672;28;19920;-67
2022/05/15 06:33:51;;;;;;;;;;;14.60;99.90;;;;;;5104475;28;19920;-67
2022/05/15 06:36:17;;;;;;;;;;;14.70;99.90;;;;;;5104027;28;19924;-67
2022/05/15 06:38:44;;;;;;;;;;;14.90;99.90;;;;;;5104338;28;20204;-67
2022/05/15 06:41:12;;;;;;;;;;;15.00;99.90;;;;;;5104763;28;19924;-68
2022/05/15 06:43:38;;;;;;;;;;;15.10;99.90;;;;;;5104299;28;19919;-67
2022/05/15 06:46:06;;;;;;;;;;;15.10;99.90;;;;;;5103710;28;19920;-67
2022/05/15 06:48:35;;;;;;;;;;;15.20;99.90;;;;;;5104096;28;19928;-68
2022/05/15 06:51:02;;;;;;;;;;;15.40;99.90;;;;;;5104426;28;19920;-68
2022/05/15 06:53:29;;;;;;;;;;;15.60;99.90;;;;;;5103373;28;20237;-67
2022/05/15 06:58:40;;;;;;;;;;;15.80;99.90;;;;;;5104165;28;20111;-67
2022/05/15 07:01:08;;;;;;;;;;;15.90;99.90;;;;;;5104102;28;19940;-67
2022/05/15 07:03:35;;;;;;;;;;;16.00;99.90;;;;;;5103918;28;19932;-67
2022/05/15 07:06:01;;;;;;;;;;;16.10;99.90;;;;;;5103344;28;19943;-68
2022/05/15 07:08:28;;;;;;;;;;;16.20;99.90;;;;;;5102205;28;19927;-67
2022/05/15 07:10:55;;;;;;;;;;;16.30;99.90;;;;;;5095987;28;19921;-67
2022/05/15 07:13:22;;;;;;;;;;;16.30;99.90;;;;;;5083253;28;20233;-67
2022/05/15 07:15:48;;;;;;;;;;;16.40;99.90;;;;;;5090797;28;19995;-67
2022/05/15 07:18:16;;;;;;;;;;;16.50;99.90;;;;;;5091769;28;19943;-67
2022/05/15 07:20:43;;;;;;;;;;;16.50;99.90;;;;;;5093229;28;19920;-68
2022/05/15 07:23:10;;;;;;;;;;;16.60;99.90;;;;;;5083311;28;19936;-67
2022/05/15 07:25:36;;;;;;;;;;;16.70;99.90;;;;;;5099157;28;19920;-67
2022/05/15 07:28:03;;;;;;;;;;;16.80;99.90;;;;;;5089212;28;19920;-67
2022/05/15 07:30:29;;;;;;;;;;;16.90;99.90;;;;;;5102989;28;19959;-67
2022/05/15 07:32:56;;;;;;;;;;;16.90;99.90;;;;;;5102958;28;20138;-67
2022/05/15 07:35:24;;;;;;;;;;;16.90;99.90;;;;;;5101668;28;20162;-67
2022/05/15 07:37:50;;;;;;;;;;;17.00;99.90;;;;;;5099565;28;19943;-68
2022/05/15 07:40:17;;;;;;;;;;;17.20;99.90;;;;;;5082904;28;19920;-67
2022/05/15 07:42:44;;;;;;;;;;;17.30;99.90;;;;;;5094474;28;19927;-67
2022/05/15 07:45:11;;;;;;;;;;;17.40;99.90;;;;;;5102701;28;19983;-68
2022/05/15 07:47:38;;;;;;;;;;;17.40;99.90;;;;;;5102146;28;19924;-67
2022/05/15 07:50:05;;;;;;;;;;;17.50;99.90;;;;;;5091962;28;19928;-67
2022/05/15 07:52:33;;;;;;;;;;;17.70;99.90;;;;;;5099708;28;19920;-67
2022/05/15 07:55:00;;;;;;;;;;;17.80;99.90;;;;;;5098215;28;19928;-67
2022/05/15 07:57:26;;;;;;;;;;;17.80;99.90;;;;;;5091804;28;20118;-67
2022/05/15 07:59:53;;;;;;;;;;;17.90;99.90;;;;;;5097574;28;19926;-67
2022/05/15 08:02:20;;;;;;;;;;;18.00;99.90;;;;;;5087534;28;20264;-68
2022/05/15 08:10:16;;;;;;;;;;;18.20;99.90;;;;;;5101138;28;20146;-67
2022/05/15 08:12:42;;;;;;;;;;;18.40;99.90;;;;;;5092410;28;19927;-67
2022/05/15 08:15:09;;;;;;;;;;;18.50;99.90;;;;;;5095266;28;20212;-67
2022/05/15 08:17:36;;;;;;;;;;;18.60;99.90;;;;;;5101077;28;20119;-68
2022/05/15 08:25:32;;;;;;;;;;;18.90;99.90;;;;;;5086048;28;19977;-67
2022/05/15 08:27:59;;;;;;;;;;;19.00;99.90;;;;;;5086736;28;19920;-67
2022/05/15 08:30:26;;;;;;;;;;;19.10;99.90;;;;;;5091829;28;19924;-67
2022/05/15 08:32:53;;;;;;;;;;;19.20;99.90;;;;;;5107287;28;19920;-67
2022/05/15 08:35:20;;;;;;;;;;;19.30;99.90;;;;;;5106056;28;19927;-67
2022/05/15 08:37:46;;;;;;;;;;;19.40;99.90;;;;;;5106902;28;20193;-67
2022/05/15 08:40:14;;;;;;;;;;;19.50;99.90;;;;;;5107224;28;19926;-67
2022/05/15 08:42:47;;;;;;;;;;;19.50;99.90;;;;;;5107126;28;19923;-67
2022/05/15 08:45:15;;;;;;;;;;;19.70;99.90;;;;;;5104805;28;20120;-67
2022/05/15 08:47:44;;;;;;;;;;;19.80;99.90;;;;;;5106986;28;19920;-67
2022/05/15 08:50:12;;;;;;;;;;;19.80;99.90;;;;;;5106872;28;19990;-67
2022/05/15 08:52:44;;;;;;;;;;;20.00;99.90;;;;;;5106663;28;19920;-67
2022/05/15 08:55:13;;;;;;;;;;;20.00;99.90;;;;;;5104258;28;19955;-67
2022/05/15 08:57:42;;;;;;;;;;;20.10;99.90;;;;;;5106423;28;19928;-67
2022/05/15 09:00:12;;;;;;;;;;;20.20;99.90;;;;;;5106592;28;19927;-67
2022/05/15 09:02:40;;;;;;;;;;;20.30;99.90;;;;;;5087998;28;20192;-67
2022/05/15 09:05:07;;;;;;;;;;;20.40;99.90;;;;;;5086063;28;20151;-67
2022/05/15 09:07:39;;;;;;;;;;;20.50;99.90;;;;;;5086009;28;19935;-67
2022/05/15 09:10:20;;;;;;;;;;;20.60;99.90;;;;;;5086415;28;20238;-67
2022/05/15 09:12:49;;;;;;;;;;;20.70;99.90;;;;;;5086443;28;19927;-67
2022/05/15 09:15:18;;;;;;;;;;;20.80;99.90;;;;;;5091751;28;19942;-68
2022/05/15 09:17:46;;;;;;;;;;;20.80;99.90;;;;;;5105592;28;19982;-67
2022/05/15 09:20:15;;;;;;;;;;;21.00;99.90;;;;;;5105968;28;20219;-67
2022/05/15 09:22:43;;;;;;;;;;;21.10;99.90;;;;;;5106384;28;19924;-67
2022/05/15 09:25:15;;;;;;;;;;;21.10;99.90;;;;;;5100734;28;19927;-68
2022/05/15 09:27:56;;;;;;;;;;;21.10;99.90;;;;;;5105706;28;20228;-67
2022/05/15 09:30:24;;;;;;;;;;;21.20;99.90;;;;;;5091898;28;19926;-67
2022/05/15 09:32:55;;;;;;;;;;;21.20;99.90;;;;;;5101092;28;19920;-67
2022/05/15 09:35:29;;;;;;;;;;;21.30;99.90;;;;;;5098294;28;19925;-68
2022/05/15 09:40:42;;;;;;;;;;;21.40;99.90;;;;;;5085485;28;19922;-68
2022/05/15 09:46:11;;;;;;;;;;;21.60;99.90;;;;;;5056619;28;20221;-68
2022/05/15 09:48:40;;;;;;;;;;;21.70;99.90;;;;;;5105624;28;19928;-68
2022/05/15 09:51:09;;;;;;;;;;;21.80;99.90;;;;;;5105322;28;19994;-68
2022/05/15 09:53:40;;;;;;;;;;;21.90;99.90;;;;;;5105153;28;19920;-68
2022/05/15 09:56:08;;;;;;;;;;;22.00;99.90;;;;;;5104619;28;19943;-67
2022/05/15 09:58:39;;;;;;;;;;;22.10;99.90;;;;;;5105201;28;19920;-68
2022/05/15 10:01:15;;;;;;;;;;;22.20;99.90;;;;;;5105283;28;19920;-68
2022/05/15 10:03:42;;;;;;;;;;;22.30;99.90;;;;;;5105204;28;19920;-68
2022/05/15 10:06:09;;;;;;;;;;;22.30;99.50;;;;;;5104216;28;19924;-68
2022/05/15 10:08:36;;;;;;;;;;;22.40;99.90;;;;;;5105170;28;20116;-68
2022/05/15 10:11:04;;;;;;;;;;;22.40;98.30;;;;;;5104604;28;20238;-67
2022/05/15 10:13:34;;;;;;;;;;;22.50;99.90;;;;;;5104504;28;20241;-68
2022/05/15 10:16:06;;;;;;;;;;;22.50;97.40;;;;;;5101460;28;19927;-68
2022/05/15 10:18:38;;;;;;;;;;;22.50;97.50;;;;;;5104863;28;19924;-68
2022/05/15 10:21:04;;;;;;;;;;;22.60;97.50;;;;;;5104917;28;19950;-67
2022/05/15 10:23:34;;;;;;;;;;;22.60;96.50;;;;;;5104510;28;20233;-68
2022/05/15 10:26:03;;;;;;;;;;;22.70;96.20;;;;;;5103861;28;19920;-69
2022/05/15 10:28:35;;;;;;;;;;;22.90;95.50;;;;;;5103526;28;20123;-68
2022/05/15 10:31:05;;;;;;;;;;;23.10;96.30;;;;;;5100211;28;19920;-68
2022/05/15 10:33:35;;;;;;;;;;;23.30;94.60;;;;;;5101146;28;19979;-68
2022/05/15 10:36:04;;;;;;;;;;;23.50;94.00;;;;;;5104300;28;19927;-68
2022/05/15 10:38:41;;;;;;;;;;;23.60;95.10;;;;;;5104547;28;19926;-68
2022/05/15 10:41:13;;;;;;;;;;;23.80;92.60;;;;;;5104394;28;19920;-68
2022/05/15 10:43:44;;;;;;;;;;;23.90;94.80;;;;;;5104448;28;19942;-66
2022/05/15 10:46:13;;;;;;;;;;;24.00;93.30;;;;;;5104117;28;19920;-68
2022/05/15 10:48:46;;;;;;;;;;;24.10;94.00;;;;;;5104541;28;19923;-68
2022/05/15 10:51:15;;;;;;;;;;;24.20;94.60;;;;;;5104334;28;20154;-68
2022/05/15 10:59:38;;;;;;;;;;;24.30;90.80;;;;;;5066489;28;19931;-68
2022/05/15 11:02:12;;;;;;;;;;;24.40;90.80;;;;;;5098523;28;19920;-67
2022/05/15 11:04:46;;;;;;;;;;;24.40;90.70;;;;;;5103690;28;19921;-67
2022/05/15 11:07:16;;;;;;;;;;;24.50;86.90;;;;;;5091444;28;19958;-67
2022/05/15 11:09:47;;;;;;;;;;;24.60;84.70;;;;;;5100486;28;19982;-67
2022/05/15 11:12:20;;;;;;;;;;;24.80;86.60;;;;;;5103889;28;19920;-68
2022/05/15 11:14:52;;;;;;;;;;;24.90;86.60;;;;;;5101295;28;19920;-67
2022/05/15 11:17:25;;;;;;;;;;;25.20;81.30;;;;;;5103194;28;19920;-67
2022/05/15 11:19:54;;;;;;;;;;;25.40;85.10;;;;;;5098478;28;20110;-68
2022/05/15 11:22:31;;;;;;;;;;;25.50;85.70;;;;;;5089041;28;20203;-68
2022/05/15 11:25:00;;;;;;;;;;;25.70;84.70;;;;;;5087221;28;19920;-68
2022/05/15 11:27:31;;;;;;;;;;;25.60;81.10;;;;;;5086998;28;19921;-68
2022/05/15 11:29:59;;;;;;;;;;;25.60;77.10;;;;;;5084039;28;19927;-67
2022/05/15 11:32:30;;;;;;;;;;;25.70;78.60;;;;;;5090722;28;19920;-68
2022/05/15 11:35:23;;;;;;;;;;;25.90;78.20;;;;;;5087037;28;19920;-68
2022/05/15 11:37:55;;;;;;;;;;;26.00;75.20;;;;;;5083827;28;19920;-69
2022/05/15 11:40:32;;;;;;;;;;;26.30;76.40;;;;;;5083434;28;19924;-68
2022/05/15 11:42:58;;;;;;;;;;;26.50;75.80;;;;;;5100613;28;20089;-67
2022/05/15 11:45:37;;;;;;;;;;;26.80;78.70;;;;;;5104416;22;19920;-69
2022/05/15 11:48:13;;;;;;;;;;;26.90;76.10;;;;;;5083143;28;19921;-67
2022/05/15 11:50:43;;;;;;;;;;;26.90;76.10;;;;;;5083770;28;20126;-69
2022/05/15 11:53:32;;;;;;;;;;;27.10;74.00;;;;;;5083913;28;19924;-69
2022/05/15 11:56:18;;;;;;;;;;;27.10;73.70;;;;;;5054139;28;19921;-69
2022/05/15 11:58:45;;;;;;;;;;;27.30;75.10;;;;;;5075285;28;19926;-69
2022/05/15 12:01:18;;;;;;;;;;;27.40;73.80;;;;;;5073051;28;19988;-69
2022/05/15 12:03:55;;;;;;;;;;;27.60;74.40;;;;;;5059125;28;19951;-69
2022/05/15 12:06:25;;;;;;;;;;;27.80;73.10;;;;;;5053271;28;19967;-69
2022/05/15 12:09:16;;;;;;;;;;;27.90;71.30;;;;;;5042971;28;19929;-69
2022/05/15 12:11:43;;;;;;;;;;;28.00;73.90;;;;;;5041313;28;19944;-69
2022/05/15 12:14:29;;;;;;;;;;;27.70;74.70;;;;;;5044985;28;19927;-69
2022/05/15 12:16:59;;;;;;;;;;;27.60;72.50;;;;;;5050076;28;19982;-69
2022/05/15 12:19:28;;;;;;;;;;;27.40;72.40;;;;;;5063882;28;20096;-69
2022/05/15 12:21:57;;;;;;;;;;;27.40;73.40;;;;;;5055728;28;19929;-69
2022/05/15 12:24:28;;;;;;;;;;;27.60;76.70;;;;;;5055169;28;20120;-69
2022/05/15 12:26:59;;;;;;;;;;;27.70;73.60;;;;;;5066627;28;19928;-69
2022/05/15 12:29:31;;;;;;;;;;;28.00;74.50;;;;;;5058489;28;19920;-69
2022/05/15 12:31:57;;;;;;;;;;;28.20;70.80;;;;;;5065284;28;20089;-69
2022/05/15 12:34:27;;;;;;;;;;;28.30;70.60;;;;;;5059912;28;19921;-69
2022/05/15 12:36:55;;;;;;;;;;;28.10;69.50;;;;;;5057323;28;19927;-69
2022/05/15 12:39:24;;;;;;;;;;;27.90;70.00;;;;;;5049101;28;20119;-69
2022/05/15 12:41:51;;;;;;;;;;;27.90;69.60;;;;;;5062658;28;19920;-71
2022/05/15 12:44:28;;;;;;;;;;;28.00;72.40;;;;;;5056983;28;19943;-70
2022/05/15 12:46:55;;;;;;;;;;;28.30;72.00;;;;;;5061169;28;20542;-71
2022/05/15 12:49:29;;;;;;;;;;;28.30;71.40;;;;;;5051629;28;19921;-70
2022/05/15 12:52:08;;;;;;;;;;;28.10;72.00;;;;;;5064755;28;19927;-70
2022/05/15 12:54:37;;;;;;;;;;;28.10;69.90;;;;;;5051194;28;19921;-71
2022/05/15 12:57:04;;;;;;;;;;;28.10;70.70;;;;;;5065399;28;19921;-70
2022/05/15 12:59:35;;;;;;;;;;;28.30;71.20;;;;;;5058480;28;20159;-71
2022/05/15 13:02:13;;;;;;;;;;;28.50;71.20;;;;;;5063642;28;19921;-69
2022/05/15 13:04:44;;;;;;;;;;;28.60;72.90;;;;;;5065689;28;19927;-70
2022/05/15 13:07:11;;;;;;;;;;;28.70;69.20;;;;;;5061089;28;20234;-69
2022/05/15 13:09:39;;;;;;;;;;;28.60;72.90;;;;;;5061415;28;19937;-69
2022/05/15 13:12:08;;;;;;;;;;;28.60;69.30;;;;;;5063370;28;19991;-69
2022/05/15 13:14:35;;;;;;;;;;;28.70;73.30;;;;;;5065458;28;19967;-69
2022/05/15 13:17:04;;;;;;;;;;;28.90;74.60;;;;;;5065172;28;19928;-70
2022/05/15 13:19:33;;;;;;;;;;;29.20;71.40;;;;;;5065452;28;19984;-70
2022/05/15 13:22:01;;;;;;;;;;;29.50;72.40;;;;;;5065650;28;20311;-70
2022/05/15 13:24:29;;;;;;;;;;;29.80;67.20;;;;;;5065846;28;19935;-69
2022/05/15 13:26:58;;;;;;;;;;;30.10;67.10;;;;;;5064968;28;20235;-70
2022/05/15 13:29:27;;;;;;;;;;;30.40;68.30;;;;;;5068201;28;20154;-71
2022/05/15 13:31:54;;;;;;;;;;;30.40;67.70;;;;;;5063515;28;19921;-70
2022/05/15 13:34:26;;;;;;;;;;;30.40;69.00;;;;;;5064607;28;19928;-70
2022/05/15 13:36:54;;;;;;;;;;;30.60;64.30;;;;;;5069069;28;19928;-70
2022/05/15 13:44:52;;;;;;;;;;;31.00;64.60;;;;;;5064910;28;19928;-70
2022/05/15 13:47:19;;;;;;;;;;;31.00;64.10;;;;;;5064174;28;19921;-70
2022/05/15 13:49:49;;;;;;;;;;;30.90;61.90;;;;;;5053012;28;19935;-70
2022/05/15 13:52:23;;;;;;;;;;;30.70;61.60;;;;;;5069454;28;19933;-70
2022/05/15 13:54:50;;;;;;;;;;;30.70;63.20;;;;;;5067388;28;19921;-70
2022/05/15 13:57:18;;;;;;;;;;;30.60;61.70;;;;;;5057294;28;19943;-70
2022/05/15 13:59:58;;;;;;;;;;;30.70;63.50;;;;;;5064751;28;19927;-70
2022/05/15 14:02:26;;;;;;;;;;;30.30;62.90;;;;;;5058415;28;19925;-69
2022/05/15 14:05:17;;;;;;;;;;;30.20;65.60;;;;;;5063080;28;19932;-69
2022/05/15 14:07:44;;;;;;;;;;;30.30;63.60;;;;;;5057597;28;20147;-69
2022/05/15 14:10:17;;;;;;;;;;;30.30;64.20;;;;;;5065139;28;19933;-69
2022/05/15 14:12:48;;;;;;;;;;;30.40;62.90;;;;;;5058435;28;19925;-69
2022/05/15 14:15:32;;;;;;;;;;;30.30;61.70;;;;;;5063405;28;19987;-69
2022/05/15 14:18:01;;;;;;;;;;;30.40;64.80;;;;;;5059925;28;19929;-69
2022/05/15 14:20:29;;;;;;;;;;;30.60;60.80;;;;;;5049528;28;19920;-70
2022/05/15 14:22:55;;;;;;;;;;;30.60;63.80;;;;;;5056101;28;19927;-70
2022/05/15 14:25:22;;;;;;;;;;;30.90;64.10;;;;;;5063625;28;20234;-70
2022/05/15 14:27:50;;;;;;;;;;;31.10;60.20;;;;;;5064421;28;19980;-70
2022/05/15 14:30:17;;;;;;;;;;;31.00;60.90;;;;;;5063945;28;19921;-69
2022/05/15 14:32:50;;;;;;;;;;;31.20;61.40;;;;;;5064612;28;19921;-69
2022/05/15 14:35:18;;;;;;;;;;;31.30;61.10;;;;;;5069264;28;19927;-70
2022/05/15 14:37:45;;;;;;;;;;;31.60;58.80;;;;;;5063898;28;19927;-69
2022/05/15 14:40:12;;;;;;;;;;;31.70;58.30;;;;;;5064258;28;19927;-69
2022/05/15 14:42:39;;;;;;;;;;;31.50;57.20;;;;;;5064019;28;19924;-69
2022/05/15 14:45:08;;;;;;;;;;;31.40;57.80;;;;;;5063980;28;19927;-69
2022/05/15 14:47:35;;;;;;;;;;;31.40;57.70;;;;;;5063846;28;19924;-69
2022/05/15 14:50:04;;;;;;;;;;;31.40;57.30;;;;;;5044699;28;19920;-68
2022/05/15 14:52:32;;;;;;;;;;;31.30;57.10;;;;;;5043940;28;20120;-67
2022/05/15 14:54:59;;;;;;;;;;;31.20;58.60;;;;;;5043319;28;19921;-68
2022/05/15 14:57:27;;;;;;;;;;;31.40;59.10;;;;;;5055079;28;20204;-70
2022/05/15 14:59:54;;;;;;;;;;;31.60;58.50;;;;;;5044612;28;19928;-69